Hovedside
METAR-TAF:

METAR-TAF

Lufthavner :

Kirkenes, Norge

Kirkenes lufthavn

breddegrad: 69-44N, lengdegrad: 029-54E, høyde over havet: 9 m

Gjeldene værobservasjon

Denne rapporten ble laget for 21 minutter siden, klokken 11:50 UTC
Vind 9 kt fra Sør
Temperatur -3°C
Luftfuktighet 80%
Trykk 999 hPa
Sikt 10 km eller mer
Brutte skyer i en høyde av 1700 ft

METAR: ENKR 151150Z 19009KT 9999 BKN017 M03/M06 Q0999 RMK WIND 731FT 21018KT

Tid: 13:11 (12:11 UTC)

Varsel

Denne rapporten ble laget for 1 time og 11 minutter siden, klokken 11:00 UTC
Varsel gyldig fra 15. klokken 12 UTC til 15. klokken 21 UTC
Vind 9 kt fra Sør
Sikt 10 km eller mer
Få skyer i en høyde av 1200 ft
Brutte skyer i en høyde av 1500 ft
Midlertidig
fra 15. klokken 12 UTC til 15. klokken 21 UTC
Brutte skyer i en høyde av 1200 ft

TAF: ENKR 151100Z 1512/1521 18009KT 9999 FEW012 BKN015 TEMPO 1512/1521 BKN012

Værobservasjoner og værvarsel for over 4000 flyplasser (METAR- og TAF-rapporter).

Tilgjengelige stasjoner er representert av de røde og gule prikkene på kartet.

Hold musepekeren over prikken for å se navnet på stasjonen.

Klikk så for å se værobservasjoner og -varsler.

For å forandre kartet kan du klikke på den grønne knappen med svart kryss for å zoome inn, på den grønne knappen med strek for å zoome ut, eller på de grønne pilene for å se tilstøtende kart.


METAR-TAF: